sensor_id;sensor_type;location;lat;lon;timestamp;P1;durP1;ratioP1;P2;durP2;ratioP2
37379;SDS011;23252;-33.992;18.480;2023-02-28T00:14:39;35.45;;;5.03;;
37379;SDS011;23252;-33.992;18.480;2023-02-28T00:17:06;23.70;;;3.35;;
37379;SDS011;23252;-33.992;18.480;2023-02-28T00:19:32;32.20;;;5.20;;
37379;SDS011;23252;-33.992;18.480;2023-02-28T00:21:59;32.43;;;4.27;;
37379;SDS011;23252;-33.992;18.480;2023-02-28T00:24:25;31.97;;;3.97;;
37379;SDS011;23252;-33.992;18.480;2023-02-28T00:26:54;33.00;;;4.65;;
37379;SDS011;23252;-33.992;18.480;2023-02-28T00:29:21;32.73;;;4.57;;
37379;SDS011;23252;-33.992;18.480;2023-02-28T00:31:47;25.77;;;4.13;;
37379;SDS011;23252;-33.992;18.480;2023-02-28T00:34:19;30.58;;;4.63;;
37379;SDS011;23252;-33.992;18.480;2023-02-28T00:36:46;35.97;;;5.03;;
37379;SDS011;23252;-33.992;18.480;2023-02-28T00:39:15;30.77;;;4.60;;
37379;SDS011;23252;-33.992;18.480;2023-02-28T00:41:42;39.90;;;5.28;;
37379;SDS011;23252;-33.992;18.480;2023-02-28T00:44:08;30.53;;;5.10;;
37379;SDS011;23252;-33.992;18.480;2023-02-28T00:46:35;31.02;;;5.15;;
37379;SDS011;23252;-33.992;18.480;2023-02-28T00:49:01;31.83;;;4.90;;
37379;SDS011;23252;-33.992;18.480;2023-02-28T00:51:28;25.17;;;4.13;;
37379;SDS011;23252;-33.992;18.480;2023-02-28T00:53:54;36.83;;;5.83;;
37379;SDS011;23252;-33.992;18.480;2023-02-28T00:56:21;32.87;;;4.17;;
37379;SDS011;23252;-33.992;18.480;2023-02-28T00:58:47;36.10;;;5.70;;
37379;SDS011;23252;-33.992;18.480;2023-02-28T01:01:14;30.43;;;4.50;;
37379;SDS011;23252;-33.992;18.480;2023-02-28T01:03:40;26.27;;;4.07;;
37379;SDS011;23252;-33.992;18.480;2023-02-28T01:06:07;23.83;;;3.88;;
37379;SDS011;23252;-33.992;18.480;2023-02-28T01:08:33;26.33;;;4.73;;
37379;SDS011;23252;-33.992;18.480;2023-02-28T01:11:06;27.37;;;4.47;;
37379;SDS011;23252;-33.992;18.480;2023-02-28T01:13:34;27.65;;;4.25;;
37379;SDS011;23252;-33.992;18.480;2023-02-28T01:16:01;33.60;;;4.30;;
37379;SDS011;23252;-33.992;18.480;2023-02-28T01:18:27;29.25;;;4.00;;
37379;SDS011;23252;-33.992;18.480;2023-02-28T01:20:54;31.87;;;4.80;;
37379;SDS011;23252;-33.992;18.480;2023-02-28T01:23:21;33.72;;;4.28;;
37379;SDS011;23252;-33.992;18.480;2023-02-28T01:25:49;32.15;;;5.05;;
37379;SDS011;23252;-33.992;18.480;2023-02-28T01:28:16;33.10;;;5.28;;
37379;SDS011;23252;-33.992;18.480;2023-02-28T01:30:46;30.57;;;4.10;;
37379;SDS011;23252;-33.992;18.480;2023-02-28T01:33:14;28.52;;;4.68;;
37379;SDS011;23252;-33.992;18.480;2023-02-28T01:35:44;32.45;;;4.07;;
37379;SDS011;23252;-33.992;18.480;2023-02-28T01:38:14;27.63;;;4.65;;
37379;SDS011;23252;-33.992;18.480;2023-02-28T01:40:40;23.85;;;4.18;;
37379;SDS011;23252;-33.992;18.480;2023-02-28T01:43:12;30.50;;;3.97;;
37379;SDS011;23252;-33.992;18.480;2023-02-28T01:45:48;38.70;;;4.90;;
37379;SDS011;23252;-33.992;18.480;2023-02-28T01:48:14;26.65;;;4.65;;
37379;SDS011;23252;-33.992;18.480;2023-02-28T01:53:11;27.83;;;4.00;;
37379;SDS011;23252;-33.992;18.480;2023-02-28T01:55:44;28.08;;;3.95;;
37379;SDS011;23252;-33.992;18.480;2023-02-28T01:58:14;39.38;;;4.88;;
37379;SDS011;23252;-33.992;18.480;2023-02-28T02:00:41;32.30;;;4.03;;
37379;SDS011;23252;-33.992;18.480;2023-02-28T02:03:08;36.50;;;5.38;;
37379;SDS011;23252;-33.992;18.480;2023-02-28T02:05:40;30.88;;;4.82;;
37379;SDS011;23252;-33.992;18.480;2023-02-28T02:08:20;27.50;;;3.55;;
37379;SDS011;23252;-33.992;18.480;2023-02-28T02:10:52;29.17;;;4.35;;
37379;SDS011;23252;-33.992;18.480;2023-02-28T02:19:46;30.50;;;4.25;;
37379;SDS011;23252;-33.992;18.480;2023-02-28T02:30:40;27.58;;;3.90;;
37379;SDS011;23252;-33.992;18.480;2023-02-28T02:36:27;26.40;;;4.85;;
37379;SDS011;23252;-33.992;18.480;2023-02-28T02:42:18;28.02;;;4.28;;
37379;SDS011;23252;-33.992;18.480;2023-02-28T02:47:54;25.98;;;4.03;;
37379;SDS011;23252;-33.992;18.480;2023-02-28T02:50:25;27.25;;;3.55;;
37379;SDS011;23252;-33.992;18.480;2023-02-28T02:52:56;26.63;;;3.72;;
37379;SDS011;23252;-33.992;18.480;2023-02-28T02:55:26;28.58;;;4.05;;
37379;SDS011;23252;-33.992;18.480;2023-02-28T02:58:01;20.55;;;3.10;;
37379;SDS011;23252;-33.992;18.480;2023-02-28T03:00:34;28.60;;;4.28;;
37379;SDS011;23252;-33.992;18.480;2023-02-28T03:03:06;24.50;;;3.35;;
37379;SDS011;23252;-33.992;18.480;2023-02-28T03:05:36;29.58;;;4.30;;
37379;SDS011;23252;-33.992;18.480;2023-02-28T03:08:14;31.05;;;3.90;;
37379;SDS011;23252;-33.992;18.480;2023-02-28T03:10:45;25.45;;;4.20;;
37379;SDS011;23252;-33.992;18.480;2023-02-28T03:13:29;26.27;;;3.65;;
37379;SDS011;23252;-33.992;18.480;2023-02-28T03:25:05;30.13;;;4.68;;
37379;SDS011;23252;-33.992;18.480;2023-02-28T03:30:17;29.55;;;5.28;;
37379;SDS011;23252;-33.992;18.480;2023-02-28T03:33:03;24.52;;;3.88;;
37379;SDS011;23252;-33.992;18.480;2023-02-28T03:35:48;26.35;;;4.47;;
37379;SDS011;23252;-33.992;18.480;2023-02-28T03:40:59;30.45;;;4.03;;
37379;SDS011;23252;-33.992;18.480;2023-02-28T03:43:49;23.77;;;3.70;;
37379;SDS011;23252;-33.992;18.480;2023-02-28T03:46:21;30.15;;;4.60;;
37379;SDS011;23252;-33.992;18.480;2023-02-28T03:48:55;28.40;;;4.63;;
37379;SDS011;23252;-33.992;18.480;2023-02-28T03:51:34;15.32;;;3.97;;
37379;SDS011;23252;-33.992;18.480;2023-02-28T03:54:05;21.30;;;3.70;;
37379;SDS011;23252;-33.992;18.480;2023-02-28T03:56:48;35.42;;;4.68;;
37379;SDS011;23252;-33.992;18.480;2023-02-28T03:59:28;30.65;;;4.22;;
37379;SDS011;23252;-33.992;18.480;2023-02-28T04:02:07;21.55;;;4.03;;
37379;SDS011;23252;-33.992;18.480;2023-02-28T04:04:34;21.30;;;3.03;;
37379;SDS011;23252;-33.992;18.480;2023-02-28T04:07:03;27.37;;;4.07;;
37379;SDS011;23252;-33.992;18.480;2023-02-28T04:09:31;22.58;;;3.55;;
37379;SDS011;23252;-33.992;18.480;2023-02-28T04:11:58;27.08;;;4.20;;
37379;SDS011;23252;-33.992;18.480;2023-02-28T04:14:25;21.00;;;3.67;;
37379;SDS011;23252;-33.992;18.480;2023-02-28T04:16:52;23.48;;;3.78;;
37379;SDS011;23252;-33.992;18.480;2023-02-28T04:19:18;27.88;;;3.83;;
37379;SDS011;23252;-33.992;18.480;2023-02-28T04:21:51;22.25;;;4.00;;
37379;SDS011;23252;-33.992;18.480;2023-02-28T04:24:23;27.15;;;4.25;;
37379;SDS011;23252;-33.992;18.480;2023-02-28T04:26:52;25.73;;;3.95;;
37379;SDS011;23252;-33.992;18.480;2023-02-28T04:29:24;26.67;;;3.80;;
37379;SDS011;23252;-33.992;18.480;2023-02-28T04:31:52;21.85;;;4.10;;
37379;SDS011;23252;-33.992;18.480;2023-02-28T04:34:20;34.08;;;4.68;;
37379;SDS011;23252;-33.992;18.480;2023-02-28T04:39:18;26.45;;;4.72;;
37379;SDS011;23252;-33.992;18.480;2023-02-28T04:41:45;31.08;;;3.72;;
37379;SDS011;23252;-33.992;18.480;2023-02-28T04:44:12;29.98;;;4.40;;
37379;SDS011;23252;-33.992;18.480;2023-02-28T04:46:39;22.40;;;3.58;;
37379;SDS011;23252;-33.992;18.480;2023-02-28T04:49:06;23.17;;;3.78;;
37379;SDS011;23252;-33.992;18.480;2023-02-28T04:51:33;22.15;;;3.75;;
37379;SDS011;23252;-33.992;18.480;2023-02-28T04:54:00;27.40;;;4.23;;
37379;SDS011;23252;-33.992;18.480;2023-02-28T04:56:26;19.50;;;2.73;;
37379;SDS011;23252;-33.992;18.480;2023-02-28T04:58:53;20.80;;;3.87;;
37379;SDS011;23252;-33.992;18.480;2023-02-28T05:03:58;21.23;;;3.47;;
37379;SDS011;23252;-33.992;18.480;2023-02-28T05:06:27;23.98;;;4.15;;
37379;SDS011;23252;-33.992;18.480;2023-02-28T05:08:55;18.35;;;3.38;;
37379;SDS011;23252;-33.992;18.480;2023-02-28T05:11:32;19.83;;;3.35;;
37379;SDS011;23252;-33.992;18.480;2023-02-28T05:14:10;17.23;;;2.92;;
37379;SDS011;23252;-33.992;18.480;2023-02-28T05:16:38;22.77;;;3.17;;
37379;SDS011;23252;-33.992;18.480;2023-02-28T05:19:05;25.07;;;3.10;;
37379;SDS011;23252;-33.992;18.480;2023-02-28T05:21:32;20.47;;;3.40;;
37379;SDS011;23252;-33.992;18.480;2023-02-28T05:24:04;16.95;;;3.30;;
37379;SDS011;23252;-33.992;18.480;2023-02-28T05:26:48;20.60;;;2.70;;
37379;SDS011;23252;-33.992;18.480;2023-02-28T05:29:21;20.83;;;3.28;;
37379;SDS011;23252;-33.992;18.480;2023-02-28T05:32:00;24.50;;;4.18;;
37379;SDS011;23252;-33.992;18.480;2023-02-28T05:34:33;22.42;;;4.28;;
37379;SDS011;23252;-33.992;18.480;2023-02-28T05:37:03;19.60;;;3.08;;
37379;SDS011;23252;-33.992;18.480;2023-02-28T05:39:47;17.13;;;3.28;;
37379;SDS011;23252;-33.992;18.480;2023-02-28T05:42:20;17.70;;;3.60;;
37379;SDS011;23252;-33.992;18.480;2023-02-28T05:44:46;20.05;;;4.15;;
37379;SDS011;23252;-33.992;18.480;2023-02-28T05:47:13;18.73;;;3.22;;
37379;SDS011;23252;-33.992;18.480;2023-02-28T05:49:41;26.58;;;3.75;;
37379;SDS011;23252;-33.992;18.480;2023-02-28T05:52:07;20.63;;;3.20;;
37379;SDS011;23252;-33.992;18.480;2023-02-28T05:54:34;24.13;;;4.28;;
37379;SDS011;23252;-33.992;18.480;2023-02-28T05:57:00;24.33;;;3.50;;
37379;SDS011;23252;-33.992;18.480;2023-02-28T05:59:27;19.10;;;3.70;;
37379;SDS011;23252;-33.992;18.480;2023-02-28T06:01:53;16.60;;;3.17;;
37379;SDS011;23252;-33.992;18.480;2023-02-28T06:04:20;33.63;;;4.40;;
37379;SDS011;23252;-33.992;18.480;2023-02-28T06:06:48;20.67;;;3.70;;
37379;SDS011;23252;-33.992;18.480;2023-02-28T08:13:59;23.58;;;4.03;;
37379;SDS011;23252;-33.992;18.480;2023-02-28T08:16:26;19.63;;;4.13;;
37379;SDS011;23252;-33.992;18.480;2023-02-28T08:18:52;19.83;;;4.15;;
37379;SDS011;23252;-33.992;18.480;2023-02-28T08:21:20;16.48;;;3.80;;
37379;SDS011;23252;-33.992;18.480;2023-02-28T08:26:14;20.20;;;2.90;;
37379;SDS011;23252;-33.992;18.480;2023-02-28T08:28:41;20.00;;;4.05;;
37379;SDS011;23252;-33.992;18.480;2023-02-28T08:31:09;20.58;;;3.80;;
37379;SDS011;23252;-33.992;18.480;2023-02-28T08:33:40;24.23;;;4.38;;
37379;SDS011;23252;-33.992;18.480;2023-02-28T08:36:07;16.73;;;3.47;;
37379;SDS011;23252;-33.992;18.480;2023-02-28T08:41:05;21.10;;;3.30;;
37379;SDS011;23252;-33.992;18.480;2023-02-28T08:43:34;21.38;;;4.47;;
37379;SDS011;23252;-33.992;18.480;2023-02-28T08:46:01;21.10;;;3.67;;
37379;SDS011;23252;-33.992;18.480;2023-02-28T08:48:29;18.95;;;3.63;;
37379;SDS011;23252;-33.992;18.480;2023-02-28T08:50:58;17.42;;;2.67;;
37379;SDS011;23252;-33.992;18.480;2023-02-28T08:53:26;20.50;;;3.22;;
37379;SDS011;23252;-33.992;18.480;2023-02-28T08:55:56;19.45;;;3.67;;
37379;SDS011;23252;-33.992;18.480;2023-02-28T08:58:28;20.80;;;2.70;;
37379;SDS011;23252;-33.992;18.480;2023-02-28T09:00:55;19.33;;;3.13;;
37379;SDS011;23252;-33.992;18.480;2023-02-28T09:03:22;20.15;;;3.30;;
37379;SDS011;23252;-33.992;18.480;2023-02-28T09:05:55;15.30;;;2.58;;
37379;SDS011;23252;-33.992;18.480;2023-02-28T09:08:24;15.60;;;3.40;;
37379;SDS011;23252;-33.992;18.480;2023-02-28T09:10:51;23.73;;;3.47;;
37379;SDS011;23252;-33.992;18.480;2023-02-28T09:13:18;15.35;;;2.42;;
37379;SDS011;23252;-33.992;18.480;2023-02-28T09:15:45;15.02;;;2.63;;
37379;SDS011;23252;-33.992;18.480;2023-02-28T09:18:12;17.02;;;2.72;;
37379;SDS011;23252;-33.992;18.480;2023-02-28T09:20:39;20.45;;;2.70;;
37379;SDS011;23252;-33.992;18.480;2023-02-28T09:23:07;14.98;;;2.60;;
37379;SDS011;23252;-33.992;18.480;2023-02-28T09:25:34;14.52;;;2.75;;
37379;SDS011;23252;-33.992;18.480;2023-02-28T09:28:01;17.98;;;3.30;;
37379;SDS011;23252;-33.992;18.480;2023-02-28T09:30:29;14.57;;;2.50;;
37379;SDS011;23252;-33.992;18.480;2023-02-28T09:32:55;19.13;;;2.72;;
37379;SDS011;23252;-33.992;18.480;2023-02-28T09:35:22;15.07;;;2.63;;
37379;SDS011;23252;-33.992;18.480;2023-02-28T09:37:50;24.15;;;3.03;;
37379;SDS011;23252;-33.992;18.480;2023-02-28T09:40:18;20.85;;;3.78;;
37379;SDS011;23252;-33.992;18.480;2023-02-28T09:42:47;17.77;;;2.75;;
37379;SDS011;23252;-33.992;18.480;2023-02-28T09:45:22;12.65;;;2.30;;
37379;SDS011;23252;-33.992;18.480;2023-02-28T09:47:54;13.70;;;2.28;;
37379;SDS011;23252;-33.992;18.480;2023-02-28T09:53:05;15.73;;;3.25;;
37379;SDS011;23252;-33.992;18.480;2023-02-28T09:55:44;15.73;;;3.15;;
37379;SDS011;23252;-33.992;18.480;2023-02-28T09:58:23;14.93;;;2.85;;
37379;SDS011;23252;-33.992;18.480;2023-02-28T10:01:19;15.90;;;2.75;;
37379;SDS011;23252;-33.992;18.480;2023-02-28T10:04:33;14.48;;;2.72;;
37379;SDS011;23252;-33.992;18.480;2023-02-28T10:12:54;12.63;;;2.03;;
37379;SDS011;23252;-33.992;18.480;2023-02-28T10:15:23;13.30;;;2.92;;
37379;SDS011;23252;-33.992;18.480;2023-02-28T10:17:54;13.95;;;2.67;;
37379;SDS011;23252;-33.992;18.480;2023-02-28T10:20:24;16.60;;;2.90;;
37379;SDS011;23252;-33.992;18.480;2023-02-28T10:25:50;10.75;;;2.67;;
37379;SDS011;23252;-33.992;18.480;2023-02-28T10:28:26;14.10;;;2.90;;
37379;SDS011;23252;-33.992;18.480;2023-02-28T10:30:56;12.95;;;2.45;;
37379;SDS011;23252;-33.992;18.480;2023-02-28T10:33:31;14.80;;;2.95;;
37379;SDS011;23252;-33.992;18.480;2023-02-28T10:36:00;14.63;;;3.17;;
37379;SDS011;23252;-33.992;18.480;2023-02-28T10:38:34;15.15;;;2.88;;
37379;SDS011;23252;-33.992;18.480;2023-02-28T10:41:03;15.23;;;2.95;;
37379;SDS011;23252;-33.992;18.480;2023-02-28T10:43:40;12.57;;;2.45;;
37379;SDS011;23252;-33.992;18.480;2023-02-28T10:48:36;14.32;;;2.67;;
37379;SDS011;23252;-33.992;18.480;2023-02-28T10:51:11;14.98;;;2.58;;
37379;SDS011;23252;-33.992;18.480;2023-02-28T10:53:45;15.95;;;2.90;;
37379;SDS011;23252;-33.992;18.480;2023-02-28T10:56:17;19.58;;;2.75;;
37379;SDS011;23252;-33.992;18.480;2023-02-28T11:06:58;22.42;;;3.30;;
37379;SDS011;23252;-33.992;18.480;2023-02-28T11:09:36;16.55;;;3.13;;
37379;SDS011;23252;-33.992;18.480;2023-02-28T11:12:06;12.10;;;2.40;;
37379;SDS011;23252;-33.992;18.480;2023-02-28T11:14:49;20.20;;;2.85;;
37379;SDS011;23252;-33.992;18.480;2023-02-28T11:17:24;16.33;;;2.50;;
37379;SDS011;23252;-33.992;18.480;2023-02-28T11:20:00;17.52;;;3.33;;
37379;SDS011;23252;-33.992;18.480;2023-02-28T11:22:31;12.27;;;2.28;;
37379;SDS011;23252;-33.992;18.480;2023-02-28T11:25:07;17.35;;;2.78;;
37379;SDS011;23252;-33.992;18.480;2023-02-28T11:27:46;14.90;;;2.08;;
37379;SDS011;23252;-33.992;18.480;2023-02-28T11:30:27;16.23;;;2.65;;
37379;SDS011;23252;-33.992;18.480;2023-02-28T11:32:57;15.38;;;2.28;;
37379;SDS011;23252;-33.992;18.480;2023-02-28T11:35:30;10.65;;;1.92;;
37379;SDS011;23252;-33.992;18.480;2023-02-28T11:38:00;9.77;;;2.25;;
37379;SDS011;23252;-33.992;18.480;2023-02-28T11:40:34;12.65;;;2.10;;
37379;SDS011;23252;-33.992;18.480;2023-02-28T11:49:18;14.43;;;1.95;;
37379;SDS011;23252;-33.992;18.480;2023-02-28T11:51:47;12.35;;;2.13;;
37379;SDS011;23252;-33.992;18.480;2023-02-28T11:54:29;13.45;;;2.13;;
37379;SDS011;23252;-33.992;18.480;2023-02-28T11:57:03;11.02;;;2.15;;
37379;SDS011;23252;-33.992;18.480;2023-02-28T12:00:01;14.73;;;1.92;;
37379;SDS011;23252;-33.992;18.480;2023-02-28T12:02:51;11.70;;;2.08;;
37379;SDS011;23252;-33.992;18.480;2023-02-28T12:13:54;17.35;;;2.38;;
37379;SDS011;23252;-33.992;18.480;2023-02-28T12:16:53;10.65;;;2.22;;
37379;SDS011;23252;-33.992;18.480;2023-02-28T12:22:01;15.02;;;2.28;;
37379;SDS011;23252;-33.992;18.480;2023-02-28T12:27:14;9.27;;;1.58;;
37379;SDS011;23252;-33.992;18.480;2023-02-28T12:30:04;12.10;;;2.20;;
37379;SDS011;23252;-33.992;18.480;2023-02-28T12:32:46;9.27;;;2.00;;
37379;SDS011;23252;-33.992;18.480;2023-02-28T12:35:31;14.48;;;1.85;;
37379;SDS011;23252;-33.992;18.480;2023-02-28T12:39:23;10.32;;;2.20;;
37379;SDS011;23252;-33.992;18.480;2023-02-28T12:41:22;9.70;;;1.40;;
37379;SDS011;23252;-33.992;18.480;2023-02-28T12:44:23;7.73;;;1.87;;
37379;SDS011;23252;-33.992;18.480;2023-02-28T12:47:21;14.90;;;2.03;;
37379;SDS011;23252;-33.992;18.480;2023-02-28T12:52:25;17.88;;;2.70;;
37379;SDS011;23252;-33.992;18.480;2023-02-28T13:06:57;11.77;;;2.05;;
37379;SDS011;23252;-33.992;18.480;2023-02-28T13:09:54;15.40;;;1.75;;
37379;SDS011;23252;-33.992;18.480;2023-02-28T13:12:23;10.90;;;1.77;;
37379;SDS011;23252;-33.992;18.480;2023-02-28T13:14:50;8.60;;;1.42;;
37379;SDS011;23252;-33.992;18.480;2023-02-28T13:17:26;13.50;;;1.83;;
37379;SDS011;23252;-33.992;18.480;2023-02-28T13:22:42;11.85;;;1.85;;
37379;SDS011;23252;-33.992;18.480;2023-02-28T13:27:59;8.05;;;1.38;;
37379;SDS011;23252;-33.992;18.480;2023-02-28T13:33:25;13.68;;;2.08;;
37379;SDS011;23252;-33.992;18.480;2023-02-28T13:38:37;12.32;;;1.80;;
37379;SDS011;23252;-33.992;18.480;2023-02-28T13:44:03;9.32;;;1.38;;
37379;SDS011;23252;-33.992;18.480;2023-02-28T13:46:36;14.88;;;2.55;;
37379;SDS011;23252;-33.992;18.480;2023-02-28T14:05:26;13.07;;;2.20;;
37379;SDS011;23252;-33.992;18.480;2023-02-28T16:18:12;21.08;;;3.53;;
37379;SDS011;23252;-33.992;18.480;2023-02-28T16:20:39;22.10;;;3.42;;
37379;SDS011;23252;-33.992;18.480;2023-02-28T16:25:37;22.10;;;2.88;;
37379;SDS011;23252;-33.992;18.480;2023-02-28T16:28:15;27.55;;;3.53;;
37379;SDS011;23252;-33.992;18.480;2023-02-28T16:30:43;22.85;;;3.63;;
37379;SDS011;23252;-33.992;18.480;2023-02-28T16:33:13;20.42;;;3.75;;
37379;SDS011;23252;-33.992;18.480;2023-02-28T16:35:39;21.50;;;3.55;;
37379;SDS011;23252;-33.992;18.480;2023-02-28T16:38:06;17.40;;;3.10;;
37379;SDS011;23252;-33.992;18.480;2023-02-28T16:40:33;19.65;;;3.17;;
37379;SDS011;23252;-33.992;18.480;2023-02-28T16:43:03;21.10;;;2.90;;
37379;SDS011;23252;-33.992;18.480;2023-02-28T16:45:33;26.05;;;3.90;;
37379;SDS011;23252;-33.992;18.480;2023-02-28T16:48:00;16.73;;;2.95;;
37379;SDS011;23252;-33.992;18.480;2023-02-28T16:50:27;15.13;;;2.75;;
37379;SDS011;23252;-33.992;18.480;2023-02-28T16:52:57;16.98;;;3.28;;
37379;SDS011;23252;-33.992;18.480;2023-02-28T16:55:24;26.17;;;3.40;;
37379;SDS011;23252;-33.992;18.480;2023-02-28T16:57:53;18.45;;;3.00;;
37379;SDS011;23252;-33.992;18.480;2023-02-28T17:00:25;20.15;;;3.13;;
37379;SDS011;23252;-33.992;18.480;2023-02-28T17:02:52;20.13;;;3.40;;
37379;SDS011;23252;-33.992;18.480;2023-02-28T17:05:20;20.20;;;4.20;;
37379;SDS011;23252;-33.992;18.480;2023-02-28T17:07:47;22.95;;;3.92;;
37379;SDS011;23252;-33.992;18.480;2023-02-28T17:10:21;20.65;;;3.50;;
37379;SDS011;23252;-33.992;18.480;2023-02-28T17:12:54;21.55;;;3.53;;
37379;SDS011;23252;-33.992;18.480;2023-02-28T17:15:20;24.40;;;3.90;;
37379;SDS011;23252;-33.992;18.480;2023-02-28T17:17:47;22.83;;;3.92;;
37379;SDS011;23252;-33.992;18.480;2023-02-28T17:20:16;18.45;;;3.60;;
37379;SDS011;23252;-33.992;18.480;2023-02-28T17:22:49;24.33;;;3.78;;
37379;SDS011;23252;-33.992;18.480;2023-02-28T17:25:16;18.88;;;3.58;;
37379;SDS011;23252;-33.992;18.480;2023-02-28T17:27:43;19.77;;;3.08;;
37379;SDS011;23252;-33.992;18.480;2023-02-28T17:30:16;20.95;;;3.53;;
37379;SDS011;23252;-33.992;18.480;2023-02-28T17:32:45;22.65;;;3.33;;
37379;SDS011;23252;-33.992;18.480;2023-02-28T17:35:12;21.70;;;4.00;;
37379;SDS011;23252;-33.992;18.480;2023-02-28T17:37:39;24.48;;;3.30;;
37379;SDS011;23252;-33.992;18.480;2023-02-28T17:40:06;15.25;;;3.25;;
37379;SDS011;23252;-33.992;18.480;2023-02-28T17:42:44;24.17;;;3.78;;
37379;SDS011;23252;-33.992;18.480;2023-02-28T17:45:11;21.25;;;3.40;;
37379;SDS011;23252;-33.992;18.480;2023-02-28T17:47:39;23.38;;;3.17;;
37379;SDS011;23252;-33.992;18.480;2023-02-28T17:50:11;28.80;;;3.67;;
37379;SDS011;23252;-33.992;18.480;2023-02-28T17:52:43;22.02;;;3.63;;
37379;SDS011;23252;-33.992;18.480;2023-02-28T17:55:09;25.23;;;4.20;;
37379;SDS011;23252;-33.992;18.480;2023-02-28T18:00:03;21.38;;;2.80;;
37379;SDS011;23252;-33.992;18.480;2023-02-28T18:02:37;20.55;;;2.90;;
37379;SDS011;23252;-33.992;18.480;2023-02-28T18:05:04;19.92;;;3.50;;
37379;SDS011;23252;-33.992;18.480;2023-02-28T18:07:31;18.38;;;3.17;;
37379;SDS011;23252;-33.992;18.480;2023-02-28T18:09:57;21.15;;;3.70;;
37379;SDS011;23252;-33.992;18.480;2023-02-28T18:12:24;21.33;;;3.65;;
37379;SDS011;23252;-33.992;18.480;2023-02-28T18:14:50;23.02;;;3.50;;
37379;SDS011;23252;-33.992;18.480;2023-02-28T18:17:17;18.27;;;3.20;;
37379;SDS011;23252;-33.992;18.480;2023-02-28T18:19:44;29.42;;;5.28;;
37379;SDS011;23252;-33.992;18.480;2023-02-28T18:22:10;22.38;;;3.13;;
37379;SDS011;23252;-33.992;18.480;2023-02-28T18:24:37;23.92;;;3.85;;
37379;SDS011;23252;-33.992;18.480;2023-02-28T18:27:03;20.38;;;3.38;;
37379;SDS011;23252;-33.992;18.480;2023-02-28T18:29:31;25.27;;;4.55;;
37379;SDS011;23252;-33.992;18.480;2023-02-28T18:31:58;26.55;;;3.78;;
37379;SDS011;23252;-33.992;18.480;2023-02-28T18:34:27;27.08;;;3.92;;
37379;SDS011;23252;-33.992;18.480;2023-02-28T18:36:54;18.58;;;3.80;;
37379;SDS011;23252;-33.992;18.480;2023-02-28T18:39:22;24.15;;;4.20;;
37379;SDS011;23252;-33.992;18.480;2023-02-28T18:41:48;22.50;;;3.03;;
37379;SDS011;23252;-33.992;18.480;2023-02-28T18:44:25;18.05;;;3.60;;
37379;SDS011;23252;-33.992;18.480;2023-02-28T18:47:10;20.70;;;3.53;;
37379;SDS011;23252;-33.992;18.480;2023-02-28T18:49:39;21.60;;;3.78;;
37379;SDS011;23252;-33.992;18.480;2023-02-28T18:52:06;21.48;;;3.60;;
37379;SDS011;23252;-33.992;18.480;2023-02-28T18:54:32;22.73;;;4.23;;
37379;SDS011;23252;-33.992;18.480;2023-02-28T18:57:10;17.98;;;3.35;;
37379;SDS011;23252;-33.992;18.480;2023-02-28T18:59:37;21.45;;;3.00;;
37379;SDS011;23252;-33.992;18.480;2023-02-28T19:02:03;22.63;;;3.67;;
37379;SDS011;23252;-33.992;18.480;2023-02-28T19:04:38;24.30;;;3.37;;
37379;SDS011;23252;-33.992;18.480;2023-02-28T19:07:12;25.70;;;3.38;;
37379;SDS011;23252;-33.992;18.480;2023-02-28T19:09:39;29.63;;;4.43;;
37379;SDS011;23252;-33.992;18.480;2023-02-28T19:12:21;26.95;;;4.70;;
37379;SDS011;23252;-33.992;18.480;2023-02-28T19:14:48;33.57;;;4.07;;
37379;SDS011;23252;-33.992;18.480;2023-02-28T19:17:21;28.42;;;4.55;;
37379;SDS011;23252;-33.992;18.480;2023-02-28T19:20:01;21.40;;;4.50;;
37379;SDS011;23252;-33.992;18.480;2023-02-28T19:22:32;25.52;;;4.68;;
37379;SDS011;23252;-33.992;18.480;2023-02-28T19:24:58;21.30;;;4.10;;
37379;SDS011;23252;-33.992;18.480;2023-02-28T19:27:28;29.45;;;5.25;;
37379;SDS011;23252;-33.992;18.480;2023-02-28T19:32:46;30.75;;;4.93;;
37379;SDS011;23252;-33.992;18.480;2023-02-28T19:38:39;17.52;;;4.10;;
37379;SDS011;23252;-33.992;18.480;2023-02-28T19:41:09;20.83;;;4.05;;
37379;SDS011;23252;-33.992;18.480;2023-02-28T19:43:46;22.25;;;4.45;;
37379;SDS011;23252;-33.992;18.480;2023-02-28T19:46:19;19.30;;;3.70;;
37379;SDS011;23252;-33.992;18.480;2023-02-28T19:48:54;29.42;;;4.50;;
37379;SDS011;23252;-33.992;18.480;2023-02-28T19:51:26;29.45;;;4.45;;
37379;SDS011;23252;-33.992;18.480;2023-02-28T19:53:58;22.27;;;3.53;;
37379;SDS011;23252;-33.992;18.480;2023-02-28T19:56:33;28.77;;;5.53;;
37379;SDS011;23252;-33.992;18.480;2023-02-28T19:59:05;20.85;;;4.70;;
37379;SDS011;23252;-33.992;18.480;2023-02-28T20:01:31;23.92;;;5.32;;
37379;SDS011;23252;-33.992;18.480;2023-02-28T20:03:58;19.93;;;4.13;;
37379;SDS011;23252;-33.992;18.480;2023-02-28T20:06:26;28.83;;;3.78;;
37379;SDS011;23252;-33.992;18.480;2023-02-28T20:08:53;25.15;;;3.78;;
37379;SDS011;23252;-33.992;18.480;2023-02-28T20:11:19;23.00;;;4.05;;
37379;SDS011;23252;-33.992;18.480;2023-02-28T20:13:46;27.55;;;3.90;;
37379;SDS011;23252;-33.992;18.480;2023-02-28T20:16:13;24.27;;;3.50;;
37379;SDS011;23252;-33.992;18.480;2023-02-28T20:18:40;24.95;;;3.88;;
37379;SDS011;23252;-33.992;18.480;2023-02-28T20:21:08;21.65;;;3.30;;
37379;SDS011;23252;-33.992;18.480;2023-02-28T20:23:37;24.88;;;4.10;;
37379;SDS011;23252;-33.992;18.480;2023-02-28T20:26:04;19.92;;;3.80;;
37379;SDS011;23252;-33.992;18.480;2023-02-28T20:28:30;15.68;;;3.10;;
37379;SDS011;23252;-33.992;18.480;2023-02-28T20:30:57;19.40;;;2.80;;
37379;SDS011;23252;-33.992;18.480;2023-02-28T20:35:57;27.88;;;3.40;;
37379;SDS011;23252;-33.992;18.480;2023-02-28T20:38:30;21.25;;;2.95;;
37379;SDS011;23252;-33.992;18.480;2023-02-28T20:40:58;19.52;;;2.88;;
37379;SDS011;23252;-33.992;18.480;2023-02-28T20:43:25;22.30;;;3.95;;
37379;SDS011;23252;-33.992;18.480;2023-02-28T20:46:10;18.92;;;3.17;;
37379;SDS011;23252;-33.992;18.480;2023-02-28T20:48:43;20.00;;;2.95;;
37379;SDS011;23252;-33.992;18.480;2023-02-28T20:51:15;24.63;;;3.28;;
37379;SDS011;23252;-33.992;18.480;2023-02-28T20:53:41;21.43;;;3.40;;
37379;SDS011;23252;-33.992;18.480;2023-02-28T20:56:11;20.67;;;2.47;;
37379;SDS011;23252;-33.992;18.480;2023-02-28T21:01:56;19.73;;;3.15;;
37379;SDS011;23252;-33.992;18.480;2023-02-28T21:04:31;22.05;;;3.65;;
37379;SDS011;23252;-33.992;18.480;2023-02-28T21:07:05;20.80;;;3.22;;
37379;SDS011;23252;-33.992;18.480;2023-02-28T21:09:31;24.88;;;3.15;;
37379;SDS011;23252;-33.992;18.480;2023-02-28T21:12:07;14.18;;;2.63;;
37379;SDS011;23252;-33.992;18.480;2023-02-28T21:14:45;22.90;;;3.20;;
37379;SDS011;23252;-33.992;18.480;2023-02-28T21:17:12;19.75;;;2.72;;
37379;SDS011;23252;-33.992;18.480;2023-02-28T21:19:38;22.92;;;3.25;;
37379;SDS011;23252;-33.992;18.480;2023-02-28T21:22:08;24.83;;;3.05;;
37379;SDS011;23252;-33.992;18.480;2023-02-28T21:24:34;21.95;;;3.20;;
37379;SDS011;23252;-33.992;18.480;2023-02-28T21:27:14;25.15;;;3.33;;
37379;SDS011;23252;-33.992;18.480;2023-02-28T21:29:40;23.63;;;3.08;;
37379;SDS011;23252;-33.992;18.480;2023-02-28T21:32:16;16.80;;;2.72;;
37379;SDS011;23252;-33.992;18.480;2023-02-28T21:34:42;20.10;;;3.07;;